sensor_id;sensor_type;location;lat;lon;timestamp;P1;durP1;ratioP1;P2;durP2;ratioP2
10100;SDS011;5090;51.258;4.436;2023-05-23T00:01:57;33.00;;;18.73;;
10100;SDS011;5090;51.258;4.436;2023-05-23T00:04:25;35.03;;;18.83;;
10100;SDS011;5090;51.258;4.436;2023-05-23T00:06:53;29.97;;;18.53;;
10100;SDS011;5090;51.258;4.436;2023-05-23T00:09:21;31.37;;;18.33;;
10100;SDS011;5090;51.258;4.436;2023-05-23T00:11:50;31.37;;;19.03;;
10100;SDS011;5090;51.258;4.436;2023-05-23T00:14:18;35.03;;;19.43;;
10100;SDS011;5090;51.258;4.436;2023-05-23T00:16:46;35.97;;;20.30;;
10100;SDS011;5090;51.258;4.436;2023-05-23T00:19:15;33.67;;;20.40;;
10100;SDS011;5090;51.258;4.436;2023-05-23T00:21:44;31.63;;;20.67;;
10100;SDS011;5090;51.258;4.436;2023-05-23T00:24:11;32.63;;;20.50;;
10100;SDS011;5090;51.258;4.436;2023-05-23T00:26:39;30.53;;;19.90;;
10100;SDS011;5090;51.258;4.436;2023-05-23T00:29:07;35.90;;;20.60;;
10100;SDS011;5090;51.258;4.436;2023-05-23T00:31:35;29.90;;;20.67;;
10100;SDS011;5090;51.258;4.436;2023-05-23T00:34:04;34.83;;;22.07;;
10100;SDS011;5090;51.258;4.436;2023-05-23T00:36:32;35.30;;;22.70;;
10100;SDS011;5090;51.258;4.436;2023-05-23T00:39:00;30.30;;;21.73;;
10100;SDS011;5090;51.258;4.436;2023-05-23T00:41:28;32.57;;;21.07;;
10100;SDS011;5090;51.258;4.436;2023-05-23T00:43:57;28.73;;;21.17;;
10100;SDS011;5090;51.258;4.436;2023-05-23T00:46:26;25.43;;;18.30;;
10100;SDS011;5090;51.258;4.436;2023-05-23T00:48:55;24.00;;;17.97;;
10100;SDS011;5090;51.258;4.436;2023-05-23T00:51:23;24.97;;;17.20;;
10100;SDS011;5090;51.258;4.436;2023-05-23T00:53:51;20.30;;;15.37;;
10100;SDS011;5090;51.258;4.436;2023-05-23T00:56:19;19.77;;;15.07;;
10100;SDS011;5090;51.258;4.436;2023-05-23T00:58:48;17.67;;;13.43;;
10100;SDS011;5090;51.258;4.436;2023-05-23T01:01:16;21.43;;;13.60;;
10100;SDS011;5090;51.258;4.436;2023-05-23T01:03:44;21.73;;;14.23;;
10100;SDS011;5090;51.258;4.436;2023-05-23T01:06:13;19.00;;;13.47;;
10100;SDS011;5090;51.258;4.436;2023-05-23T01:08:42;20.37;;;13.13;;
10100;SDS011;5090;51.258;4.436;2023-05-23T01:11:13;19.13;;;13.47;;
10100;SDS011;5090;51.258;4.436;2023-05-23T01:13:41;24.77;;;13.40;;
10100;SDS011;5090;51.258;4.436;2023-05-23T01:16:11;20.13;;;13.67;;
10100;SDS011;5090;51.258;4.436;2023-05-23T01:18:38;20.17;;;13.33;;
10100;SDS011;5090;51.258;4.436;2023-05-23T01:21:08;17.43;;;12.53;;
10100;SDS011;5090;51.258;4.436;2023-05-23T01:23:48;20.63;;;12.93;;
10100;SDS011;5090;51.258;4.436;2023-05-23T01:28:49;22.60;;;14.13;;
10100;SDS011;5090;51.258;4.436;2023-05-23T01:31:15;18.47;;;13.40;;
10100;SDS011;5090;51.258;4.436;2023-05-23T01:33:43;20.47;;;13.17;;
10100;SDS011;5090;51.258;4.436;2023-05-23T01:36:12;22.93;;;13.90;;
10100;SDS011;5090;51.258;4.436;2023-05-23T01:38:40;20.70;;;14.13;;
10100;SDS011;5090;51.258;4.436;2023-05-23T01:41:08;21.57;;;13.60;;
10100;SDS011;5090;51.258;4.436;2023-05-23T01:43:36;20.87;;;14.13;;
10100;SDS011;5090;51.258;4.436;2023-05-23T01:46:05;25.90;;;14.70;;
10100;SDS011;5090;51.258;4.436;2023-05-23T01:48:33;23.70;;;14.70;;
10100;SDS011;5090;51.258;4.436;2023-05-23T01:51:01;24.30;;;14.17;;
10100;SDS011;5090;51.258;4.436;2023-05-23T01:53:29;28.83;;;14.50;;
10100;SDS011;5090;51.258;4.436;2023-05-23T01:55:58;30.30;;;16.67;;
10100;SDS011;5090;51.258;4.436;2023-05-23T01:58:26;29.17;;;15.60;;
10100;SDS011;5090;51.258;4.436;2023-05-23T02:00:54;28.07;;;17.10;;
10100;SDS011;5090;51.258;4.436;2023-05-23T02:03:22;32.37;;;16.77;;
10100;SDS011;5090;51.258;4.436;2023-05-23T02:05:50;27.07;;;16.90;;
10100;SDS011;5090;51.258;4.436;2023-05-23T02:08:19;32.20;;;16.73;;
10100;SDS011;5090;51.258;4.436;2023-05-23T02:10:47;33.13;;;18.00;;
10100;SDS011;5090;51.258;4.436;2023-05-23T02:13:15;34.77;;;17.10;;
10100;SDS011;5090;51.258;4.436;2023-05-23T02:15:43;30.50;;;16.73;;
10100;SDS011;5090;51.258;4.436;2023-05-23T02:18:11;30.87;;;18.03;;
10100;SDS011;5090;51.258;4.436;2023-05-23T02:20:40;28.83;;;18.87;;
10100;SDS011;5090;51.258;4.436;2023-05-23T02:23:08;30.50;;;18.63;;
10100;SDS011;5090;51.258;4.436;2023-05-23T02:25:36;35.77;;;20.57;;
10100;SDS011;5090;51.258;4.436;2023-05-23T02:28:04;35.50;;;20.57;;
10100;SDS011;5090;51.258;4.436;2023-05-23T02:30:33;37.93;;;21.90;;
10100;SDS011;5090;51.258;4.436;2023-05-23T02:33:03;41.07;;;22.47;;
10100;SDS011;5090;51.258;4.436;2023-05-23T02:35:29;37.40;;;22.03;;
10100;SDS011;5090;51.258;4.436;2023-05-23T02:37:57;38.80;;;22.80;;
10100;SDS011;5090;51.258;4.436;2023-05-23T02:40:25;33.37;;;21.53;;
10100;SDS011;5090;51.258;4.436;2023-05-23T02:42:54;35.27;;;21.70;;
10100;SDS011;5090;51.258;4.436;2023-05-23T02:45:22;40.20;;;21.70;;
10100;SDS011;5090;51.258;4.436;2023-05-23T02:47:50;34.30;;;21.13;;
10100;SDS011;5090;51.258;4.436;2023-05-23T02:50:18;38.83;;;21.67;;
10100;SDS011;5090;51.258;4.436;2023-05-23T02:52:46;27.83;;;18.77;;
10100;SDS011;5090;51.258;4.436;2023-05-23T02:55:15;32.40;;;18.50;;
10100;SDS011;5090;51.258;4.436;2023-05-23T02:57:43;25.67;;;16.97;;
10100;SDS011;5090;51.258;4.436;2023-05-23T03:00:11;24.27;;;14.23;;
10100;SDS011;5090;51.258;4.436;2023-05-23T03:02:40;21.80;;;13.20;;
10100;SDS011;5090;51.258;4.436;2023-05-23T03:05:08;22.73;;;12.43;;
10100;SDS011;5090;51.258;4.436;2023-05-23T03:07:36;24.10;;;12.10;;
10100;SDS011;5090;51.258;4.436;2023-05-23T03:10:05;17.57;;;11.57;;
10100;SDS011;5090;51.258;4.436;2023-05-23T03:12:33;16.90;;;11.30;;
10100;SDS011;5090;51.258;4.436;2023-05-23T03:15:01;15.40;;;10.63;;
10100;SDS011;5090;51.258;4.436;2023-05-23T03:17:30;16.80;;;10.70;;
10100;SDS011;5090;51.258;4.436;2023-05-23T03:19:58;14.33;;;10.30;;
10100;SDS011;5090;51.258;4.436;2023-05-23T03:22:26;15.07;;;10.07;;
10100;SDS011;5090;51.258;4.436;2023-05-23T03:24:54;18.47;;;10.00;;
10100;SDS011;5090;51.258;4.436;2023-05-23T03:27:23;17.43;;;10.43;;
10100;SDS011;5090;51.258;4.436;2023-05-23T03:29:52;15.43;;;10.80;;
10100;SDS011;5090;51.258;4.436;2023-05-23T03:32:20;20.37;;;10.27;;
10100;SDS011;5090;51.258;4.436;2023-05-23T03:34:48;16.90;;;10.53;;
10100;SDS011;5090;51.258;4.436;2023-05-23T03:37:16;19.00;;;11.10;;
10100;SDS011;5090;51.258;4.436;2023-05-23T03:39:44;17.83;;;11.20;;
10100;SDS011;5090;51.258;4.436;2023-05-23T03:42:14;18.03;;;11.33;;
10100;SDS011;5090;51.258;4.436;2023-05-23T03:44:42;15.40;;;10.33;;
10100;SDS011;5090;51.258;4.436;2023-05-23T03:47:10;16.23;;;11.33;;
10100;SDS011;5090;51.258;4.436;2023-05-23T03:49:38;19.33;;;12.43;;
10100;SDS011;5090;51.258;4.436;2023-05-23T03:52:07;16.30;;;11.33;;
10100;SDS011;5090;51.258;4.436;2023-05-23T03:54:35;21.33;;;13.07;;
10100;SDS011;5090;51.258;4.436;2023-05-23T03:57:03;20.47;;;13.37;;
10100;SDS011;5090;51.258;4.436;2023-05-23T03:59:31;20.50;;;13.30;;
10100;SDS011;5090;51.258;4.436;2023-05-23T04:02:00;20.37;;;13.23;;
10100;SDS011;5090;51.258;4.436;2023-05-23T04:04:28;21.00;;;13.93;;
10100;SDS011;5090;51.258;4.436;2023-05-23T04:06:57;23.67;;;14.20;;
10100;SDS011;5090;51.258;4.436;2023-05-23T04:09:25;22.80;;;12.67;;
10100;SDS011;5090;51.258;4.436;2023-05-23T04:11:53;24.17;;;14.00;;
10100;SDS011;5090;51.258;4.436;2023-05-23T04:14:21;27.47;;;13.00;;
10100;SDS011;5090;51.258;4.436;2023-05-23T04:16:49;26.30;;;12.60;;
10100;SDS011;5090;51.258;4.436;2023-05-23T04:19:17;23.67;;;12.63;;
10100;SDS011;5090;51.258;4.436;2023-05-23T04:21:46;23.47;;;12.70;;
10100;SDS011;5090;51.258;4.436;2023-05-23T04:24:14;25.67;;;11.03;;
10100;SDS011;5090;51.258;4.436;2023-05-23T04:26:43;30.20;;;12.30;;
10100;SDS011;5090;51.258;4.436;2023-05-23T04:29:12;26.43;;;11.07;;
10100;SDS011;5090;51.258;4.436;2023-05-23T04:31:41;24.67;;;11.40;;
10100;SDS011;5090;51.258;4.436;2023-05-23T04:34:09;29.40;;;11.20;;
10100;SDS011;5090;51.258;4.436;2023-05-23T04:36:37;35.67;;;12.27;;
10100;SDS011;5090;51.258;4.436;2023-05-23T04:39:05;24.93;;;11.57;;
10100;SDS011;5090;51.258;4.436;2023-05-23T04:41:34;27.40;;;10.50;;
10100;SDS011;5090;51.258;4.436;2023-05-23T04:44:02;29.77;;;12.73;;
10100;SDS011;5090;51.258;4.436;2023-05-23T04:46:30;27.50;;;11.17;;
10100;SDS011;5090;51.258;4.436;2023-05-23T04:49:00;26.00;;;11.67;;
10100;SDS011;5090;51.258;4.436;2023-05-23T04:51:28;32.93;;;13.47;;
10100;SDS011;5090;51.258;4.436;2023-05-23T04:53:57;23.93;;;11.00;;
10100;SDS011;5090;51.258;4.436;2023-05-23T04:56:25;28.67;;;11.40;;
10100;SDS011;5090;51.258;4.436;2023-05-23T04:58:54;31.17;;;12.03;;
10100;SDS011;5090;51.258;4.436;2023-05-23T05:01:24;28.20;;;12.00;;
10100;SDS011;5090;51.258;4.436;2023-05-23T05:03:53;25.53;;;11.33;;
10100;SDS011;5090;51.258;4.436;2023-05-23T05:06:21;27.27;;;11.90;;
10100;SDS011;5090;51.258;4.436;2023-05-23T05:08:50;32.73;;;11.43;;
10100;SDS011;5090;51.258;4.436;2023-05-23T05:11:18;28.30;;;11.80;;
10100;SDS011;5090;51.258;4.436;2023-05-23T05:13:47;25.33;;;12.47;;
10100;SDS011;5090;51.258;4.436;2023-05-23T05:16:15;27.00;;;12.60;;
10100;SDS011;5090;51.258;4.436;2023-05-23T05:18:43;32.07;;;14.83;;
10100;SDS011;5090;51.258;4.436;2023-05-23T05:21:12;28.73;;;14.20;;
10100;SDS011;5090;51.258;4.436;2023-05-23T05:23:40;28.13;;;14.20;;
10100;SDS011;5090;51.258;4.436;2023-05-23T05:26:08;30.33;;;13.57;;
10100;SDS011;5090;51.258;4.436;2023-05-23T05:28:37;32.13;;;13.80;;
10100;SDS011;5090;51.258;4.436;2023-05-23T05:31:05;26.03;;;13.87;;
10100;SDS011;5090;51.258;4.436;2023-05-23T05:33:33;24.47;;;12.80;;
10100;SDS011;5090;51.258;4.436;2023-05-23T05:36:02;26.70;;;12.90;;
10100;SDS011;5090;51.258;4.436;2023-05-23T05:38:30;29.47;;;12.90;;
10100;SDS011;5090;51.258;4.436;2023-05-23T05:40:59;22.80;;;10.83;;
10100;SDS011;5090;51.258;4.436;2023-05-23T05:43:27;20.57;;;11.60;;
10100;SDS011;5090;51.258;4.436;2023-05-23T05:45:55;18.23;;;10.30;;
10100;SDS011;5090;51.258;4.436;2023-05-23T05:48:24;25.73;;;10.67;;
10100;SDS011;5090;51.258;4.436;2023-05-23T05:50:53;21.27;;;9.87;;
10100;SDS011;5090;51.258;4.436;2023-05-23T05:53:21;15.80;;;9.30;;
10100;SDS011;5090;51.258;4.436;2023-05-23T05:55:49;17.47;;;9.17;;
10100;SDS011;5090;51.258;4.436;2023-05-23T05:58:17;20.60;;;7.97;;
10100;SDS011;5090;51.258;4.436;2023-05-23T06:00:46;18.37;;;7.27;;
10100;SDS011;5090;51.258;4.436;2023-05-23T06:03:14;18.60;;;6.60;;
10100;SDS011;5090;51.258;4.436;2023-05-23T06:05:42;16.63;;;6.03;;
10100;SDS011;5090;51.258;4.436;2023-05-23T06:08:10;15.80;;;5.70;;
10100;SDS011;5090;51.258;4.436;2023-05-23T06:10:39;16.47;;;5.63;;
10100;SDS011;5090;51.258;4.436;2023-05-23T06:13:07;15.77;;;5.87;;
10100;SDS011;5090;51.258;4.436;2023-05-23T06:15:35;15.30;;;5.63;;
10100;SDS011;5090;51.258;4.436;2023-05-23T06:18:03;12.77;;;5.97;;
10100;SDS011;5090;51.258;4.436;2023-05-23T06:20:31;14.37;;;5.70;;
10100;SDS011;5090;51.258;4.436;2023-05-23T06:23:01;15.33;;;5.80;;
10100;SDS011;5090;51.258;4.436;2023-05-23T06:25:29;12.40;;;5.93;;
10100;SDS011;5090;51.258;4.436;2023-05-23T06:27:57;16.70;;;6.00;;
10100;SDS011;5090;51.258;4.436;2023-05-23T06:30:25;10.33;;;5.60;;
10100;SDS011;5090;51.258;4.436;2023-05-23T06:32:53;16.37;;;6.13;;
10100;SDS011;5090;51.258;4.436;2023-05-23T06:35:22;16.30;;;6.50;;
10100;SDS011;5090;51.258;4.436;2023-05-23T06:37:50;16.90;;;5.67;;
10100;SDS011;5090;51.258;4.436;2023-05-23T06:40:18;10.23;;;5.60;;
10100;SDS011;5090;51.258;4.436;2023-05-23T06:42:46;15.83;;;5.77;;
10100;SDS011;5090;51.258;4.436;2023-05-23T06:45:15;14.20;;;6.60;;
10100;SDS011;5090;51.258;4.436;2023-05-23T06:47:43;12.40;;;6.13;;
10100;SDS011;5090;51.258;4.436;2023-05-23T06:50:11;14.00;;;6.37;;
10100;SDS011;5090;51.258;4.436;2023-05-23T06:52:39;14.50;;;6.03;;
10100;SDS011;5090;51.258;4.436;2023-05-23T06:55:08;17.63;;;6.33;;
10100;SDS011;5090;51.258;4.436;2023-05-23T06:57:36;19.47;;;6.27;;
10100;SDS011;5090;51.258;4.436;2023-05-23T07:00:04;13.70;;;7.40;;
10100;SDS011;5090;51.258;4.436;2023-05-23T07:02:33;16.30;;;7.00;;
10100;SDS011;5090;51.258;4.436;2023-05-23T07:05:01;14.90;;;6.32;;
10100;SDS011;5090;51.258;4.436;2023-05-23T07:07:29;16.00;;;7.28;;
10100;SDS011;5090;51.258;4.436;2023-05-23T07:09:57;19.35;;;6.55;;
10100;SDS011;5090;51.258;4.436;2023-05-23T07:12:25;16.27;;;6.73;;
10100;SDS011;5090;51.258;4.436;2023-05-23T07:14:54;18.87;;;6.93;;
10100;SDS011;5090;51.258;4.436;2023-05-23T07:17:22;15.43;;;6.53;;
10100;SDS011;5090;51.258;4.436;2023-05-23T07:19:50;17.67;;;6.20;;
10100;SDS011;5090;51.258;4.436;2023-05-23T07:22:18;18.27;;;6.90;;
10100;SDS011;5090;51.258;4.436;2023-05-23T07:24:47;13.00;;;5.57;;
10100;SDS011;5090;51.258;4.436;2023-05-23T07:27:16;15.50;;;6.57;;
10100;SDS011;5090;51.258;4.436;2023-05-23T07:29:44;17.10;;;6.60;;
10100;SDS011;5090;51.258;4.436;2023-05-23T07:32:12;12.80;;;5.90;;
10100;SDS011;5090;51.258;4.436;2023-05-23T07:34:40;12.13;;;5.73;;
10100;SDS011;5090;51.258;4.436;2023-05-23T07:37:08;15.77;;;6.10;;
10100;SDS011;5090;51.258;4.436;2023-05-23T07:39:37;17.67;;;6.50;;
10100;SDS011;5090;51.258;4.436;2023-05-23T07:42:05;16.33;;;6.20;;
10100;SDS011;5090;51.258;4.436;2023-05-23T07:44:33;13.30;;;6.10;;
10100;SDS011;5090;51.258;4.436;2023-05-23T07:47:02;16.70;;;5.70;;
10100;SDS011;5090;51.258;4.436;2023-05-23T07:49:32;13.57;;;6.90;;
10100;SDS011;5090;51.258;4.436;2023-05-23T07:52:01;12.33;;;4.93;;
10100;SDS011;5090;51.258;4.436;2023-05-23T07:54:29;13.90;;;5.57;;
10100;SDS011;5090;51.258;4.436;2023-05-23T07:56:58;9.80;;;4.93;;
10100;SDS011;5090;51.258;4.436;2023-05-23T07:59:27;10.10;;;5.30;;
10100;SDS011;5090;51.258;4.436;2023-05-23T08:01:55;12.30;;;5.03;;
10100;SDS011;5090;51.258;4.436;2023-05-23T08:04:23;13.73;;;5.07;;
10100;SDS011;5090;51.258;4.436;2023-05-23T08:06:51;13.00;;;5.07;;
10100;SDS011;5090;51.258;4.436;2023-05-23T08:09:20;11.07;;;5.30;;
10100;SDS011;5090;51.258;4.436;2023-05-23T08:11:48;14.77;;;5.10;;
10100;SDS011;5090;51.258;4.436;2023-05-23T08:14:16;15.23;;;5.67;;
10100;SDS011;5090;51.258;4.436;2023-05-23T08:16:44;13.30;;;6.10;;
10100;SDS011;5090;51.258;4.436;2023-05-23T08:19:12;9.90;;;5.20;;
10100;SDS011;5090;51.258;4.436;2023-05-23T08:21:41;13.77;;;6.03;;
10100;SDS011;5090;51.258;4.436;2023-05-23T08:24:09;14.17;;;6.30;;
10100;SDS011;5090;51.258;4.436;2023-05-23T08:26:38;14.80;;;5.90;;
10100;SDS011;5090;51.258;4.436;2023-05-23T08:29:06;15.67;;;6.00;;
10100;SDS011;5090;51.258;4.436;2023-05-23T08:31:35;7.77;;;4.50;;
10100;SDS011;5090;51.258;4.436;2023-05-23T08:34:03;9.20;;;4.40;;
10100;SDS011;5090;51.258;4.436;2023-05-23T08:36:31;9.10;;;4.60;;
10100;SDS011;5090;51.258;4.436;2023-05-23T08:39:00;11.03;;;4.00;;
10100;SDS011;5090;51.258;4.436;2023-05-23T08:41:28;8.53;;;3.50;;
10100;SDS011;5090;51.258;4.436;2023-05-23T08:43:56;7.27;;;2.60;;
10100;SDS011;5090;51.258;4.436;2023-05-23T08:46:24;7.23;;;2.30;;
10100;SDS011;5090;51.258;4.436;2023-05-23T08:48:53;9.30;;;2.87;;
10100;SDS011;5090;51.258;4.436;2023-05-23T08:51:22;7.27;;;2.10;;
10100;SDS011;5090;51.258;4.436;2023-05-23T08:53:50;6.97;;;1.97;;
10100;SDS011;5090;51.258;4.436;2023-05-23T08:56:25;8.40;;;2.30;;
10100;SDS011;5090;51.258;4.436;2023-05-23T08:58:53;7.60;;;1.80;;
10100;SDS011;5090;51.258;4.436;2023-05-23T09:01:22;4.47;;;1.90;;
10100;SDS011;5090;51.258;4.436;2023-05-23T09:03:50;5.57;;;1.90;;
10100;SDS011;5090;51.258;4.436;2023-05-23T09:06:19;5.40;;;1.90;;
10100;SDS011;5090;51.258;4.436;2023-05-23T09:08:46;4.60;;;1.67;;
10100;SDS011;5090;51.258;4.436;2023-05-23T09:11:15;5.00;;;2.00;;
10100;SDS011;5090;51.258;4.436;2023-05-23T09:13:43;7.87;;;1.90;;
10100;SDS011;5090;51.258;4.436;2023-05-23T09:16:11;6.77;;;1.93;;
10100;SDS011;5090;51.258;4.436;2023-05-23T09:18:40;5.93;;;2.13;;
10100;SDS011;5090;51.258;4.436;2023-05-23T09:21:08;5.33;;;2.33;;
10100;SDS011;5090;51.258;4.436;2023-05-23T09:23:37;6.80;;;2.60;;
10100;SDS011;5090;51.258;4.436;2023-05-23T09:26:06;8.40;;;2.67;;
10100;SDS011;5090;51.258;4.436;2023-05-23T09:28:34;9.00;;;2.40;;
10100;SDS011;5090;51.258;4.436;2023-05-23T09:31:02;7.40;;;2.13;;
10100;SDS011;5090;51.258;4.436;2023-05-23T09:33:41;8.35;;;2.20;;
10100;SDS011;5090;51.258;4.436;2023-05-23T09:36:09;3.97;;;1.90;;
10100;SDS011;5090;51.258;4.436;2023-05-23T09:38:38;7.97;;;2.30;;
10100;SDS011;5090;51.258;4.436;2023-05-23T09:41:06;6.18;;;2.50;;
10100;SDS011;5090;51.258;4.436;2023-05-23T09:43:35;5.78;;;1.85;;
10100;SDS011;5090;51.258;4.436;2023-05-23T09:46:06;16.55;;;4.55;;
10100;SDS011;5090;51.258;4.436;2023-05-23T09:48:34;9.00;;;2.22;;
10100;SDS011;5090;51.258;4.436;2023-05-23T09:51:03;13.65;;;2.72;;
10100;SDS011;5090;51.258;4.436;2023-05-23T09:53:31;9.88;;;2.47;;
10100;SDS011;5090;51.258;4.436;2023-05-23T09:55:59;7.50;;;1.80;;
10100;SDS011;5090;51.258;4.436;2023-05-23T09:58:27;9.05;;;2.60;;
10100;SDS011;5090;51.258;4.436;2023-05-23T10:00:56;8.27;;;1.85;;
10100;SDS011;5090;51.258;4.436;2023-05-23T10:03:26;9.57;;;2.33;;
10100;SDS011;5090;51.258;4.436;2023-05-23T10:05:56;8.70;;;2.30;;
10100;SDS011;5090;51.258;4.436;2023-05-23T10:08:25;11.07;;;2.35;;
10100;SDS011;5090;51.258;4.436;2023-05-23T10:11:27;9.57;;;2.17;;
10100;SDS011;5090;51.258;4.436;2023-05-23T10:13:42;11.35;;;2.25;;
10100;SDS011;5090;51.258;4.436;2023-05-23T10:16:13;9.88;;;2.15;;
10100;SDS011;5090;51.258;4.436;2023-05-23T10:18:42;13.93;;;2.97;;
10100;SDS011;5090;51.258;4.436;2023-05-23T10:21:14;15.68;;;3.50;;
10100;SDS011;5090;51.258;4.436;2023-05-23T10:23:42;12.45;;;2.62;;
10100;SDS011;5090;51.258;4.436;2023-05-23T10:26:11;11.48;;;2.80;;
10100;SDS011;5090;51.258;4.436;2023-05-23T10:28:40;10.77;;;2.20;;
10100;SDS011;5090;51.258;4.436;2023-05-23T10:31:08;8.68;;;2.40;;
10100;SDS011;5090;51.258;4.436;2023-05-23T10:33:39;11.12;;;2.80;;
10100;SDS011;5090;51.258;4.436;2023-05-23T10:36:10;11.93;;;2.95;;
10100;SDS011;5090;51.258;4.436;2023-05-23T10:38:44;17.48;;;2.50;;
10100;SDS011;5090;51.258;4.436;2023-05-23T10:41:10;8.98;;;2.75;;
10100;SDS011;5090;51.258;4.436;2023-05-23T10:43:41;12.00;;;2.75;;
10100;SDS011;5090;51.258;4.436;2023-05-23T10:46:07;10.48;;;2.83;;
10100;SDS011;5090;51.258;4.436;2023-05-23T10:48:40;8.07;;;2.97;;
10100;SDS011;5090;51.258;4.436;2023-05-23T10:51:05;9.38;;;2.62;;
10100;SDS011;5090;51.258;4.436;2023-05-23T10:53:34;11.63;;;2.50;;
10100;SDS011;5090;51.258;4.436;2023-05-23T10:56:03;9.20;;;2.87;;
10100;SDS011;5090;51.258;4.436;2023-05-23T10:58:29;10.35;;;3.00;;
10100;SDS011;5090;51.258;4.436;2023-05-23T11:00:59;10.25;;;3.05;;
10100;SDS011;5090;51.258;4.436;2023-05-23T11:03:32;12.27;;;3.08;;
10100;SDS011;5090;51.258;4.436;2023-05-23T11:06:02;11.03;;;2.70;;
10100;SDS011;5090;51.258;4.436;2023-05-23T11:08:36;9.50;;;2.90;;
10100;SDS011;5090;51.258;4.436;2023-05-23T11:11:03;10.27;;;3.20;;
10100;SDS011;5090;51.258;4.436;2023-05-23T11:18:40;14.75;;;2.87;;
10100;SDS011;5090;51.258;4.436;2023-05-23T11:21:08;13.52;;;2.70;;
10100;SDS011;5090;51.258;4.436;2023-05-23T11:23:38;10.95;;;2.87;;
10100;SDS011;5090;51.258;4.436;2023-05-23T11:26:27;10.80;;;2.80;;
10100;SDS011;5090;51.258;4.436;2023-05-23T11:28:53;13.18;;;3.10;;
10100;SDS011;5090;51.258;4.436;2023-05-23T11:31:02;12.30;;;3.13;;
10100;SDS011;5090;51.258;4.436;2023-05-23T11:33:31;11.73;;;3.00;;
10100;SDS011;5090;51.258;4.436;2023-05-23T11:36:00;11.07;;;3.00;;
10100;SDS011;5090;51.258;4.436;2023-05-23T11:38:29;13.90;;;2.90;;
10100;SDS011;5090;51.258;4.436;2023-05-23T11:40:57;12.73;;;2.83;;
10100;SDS011;5090;51.258;4.436;2023-05-23T11:43:26;9.53;;;3.07;;
10100;SDS011;5090;51.258;4.436;2023-05-23T11:45:54;9.85;;;2.87;;
10100;SDS011;5090;51.258;4.436;2023-05-23T11:48:22;13.57;;;3.27;;
10100;SDS011;5090;51.258;4.436;2023-05-23T11:50:51;11.75;;;2.65;;
10100;SDS011;5090;51.258;4.436;2023-05-23T11:53:19;13.75;;;3.05;;
10100;SDS011;5090;51.258;4.436;2023-05-23T11:55:48;12.18;;;3.12;;
10100;SDS011;5090;51.258;4.436;2023-05-23T11:58:17;11.95;;;2.97;;
10100;SDS011;5090;51.258;4.436;2023-05-23T12:00:45;15.98;;;3.22;;
10100;SDS011;5090;51.258;4.436;2023-05-23T12:03:13;13.02;;;3.20;;
10100;SDS011;5090;51.258;4.436;2023-05-23T12:05:42;12.70;;;2.73;;
10100;SDS011;5090;51.258;4.436;2023-05-23T12:08:11;13.07;;;3.35;;
10100;SDS011;5090;51.258;4.436;2023-05-23T12:10:47;14.38;;;4.25;;
10100;SDS011;5090;51.258;4.436;2023-05-23T12:13:06;17.37;;;3.17;;
10100;SDS011;5090;51.258;4.436;2023-05-23T12:15:36;11.70;;;3.20;;
10100;SDS011;5090;51.258;4.436;2023-05-23T12:18:08;10.50;;;2.92;;
10100;SDS011;5090;51.258;4.436;2023-05-23T12:20:37;10.65;;;4.57;;
10100;SDS011;5090;51.258;4.436;2023-05-23T12:23:05;10.18;;;2.80;;
10100;SDS011;5090;51.258;4.436;2023-05-23T12:25:39;15.10;;;2.83;;
10100;SDS011;5090;51.258;4.436;2023-05-23T12:28:08;13.85;;;2.75;;
10100;SDS011;5090;51.258;4.436;2023-05-23T12:30:39;10.27;;;3.17;;
10100;SDS011;5090;51.258;4.436;2023-05-23T12:33:07;14.82;;;2.95;;
10100;SDS011;5090;51.258;4.436;2023-05-23T12:35:36;8.43;;;2.50;;
10100;SDS011;5090;51.258;4.436;2023-05-23T12:38:05;9.25;;;2.58;;
10100;SDS011;5090;51.258;4.436;2023-05-23T12:40:34;7.97;;;2.40;;
10100;SDS011;5090;51.258;4.436;2023-05-23T12:43:02;8.77;;;3.33;;
10100;SDS011;5090;51.258;4.436;2023-05-23T12:45:31;7.43;;;2.60;;
10100;SDS011;5090;51.258;4.436;2023-05-23T12:47:59;11.32;;;2.90;;
10100;SDS011;5090;51.258;4.436;2023-05-23T12:50:27;11.48;;;2.67;;
10100;SDS011;5090;51.258;4.436;2023-05-23T12:52:55;11.35;;;3.08;;
10100;SDS011;5090;51.258;4.436;2023-05-23T12:55:23;9.80;;;2.70;;
10100;SDS011;5090;51.258;4.436;2023-05-23T12:57:51;11.45;;;3.08;;
10100;SDS011;5090;51.258;4.436;2023-05-23T13:00:20;14.57;;;3.45;;
10100;SDS011;5090;51.258;4.436;2023-05-23T13:02:48;11.23;;;2.42;;
10100;SDS011;5090;51.258;4.436;2023-05-23T13:05:16;13.25;;;3.42;;
10100;SDS011;5090;51.258;4.436;2023-05-23T13:07:45;13.33;;;3.03;;
10100;SDS011;5090;51.258;4.436;2023-05-23T13:10:13;14.63;;;3.47;;
10100;SDS011;5090;51.258;4.436;2023-05-23T13:12:43;9.38;;;2.72;;
10100;SDS011;5090;51.258;4.436;2023-05-23T13:15:11;9.75;;;3.28;;
10100;SDS011;5090;51.258;4.436;2023-05-23T13:17:40;10.65;;;3.83;;
10100;SDS011;5090;51.258;4.436;2023-05-23T13:20:09;14.77;;;2.70;;
10100;SDS011;5090;51.258;4.436;2023-05-23T13:22:37;10.53;;;2.70;;
10100;SDS011;5090;51.258;4.436;2023-05-23T13:25:06;10.70;;;2.50;;
10100;SDS011;5090;51.258;4.436;2023-05-23T13:27:34;9.07;;;2.03;;
10100;SDS011;5090;51.258;4.436;2023-05-23T13:30:02;7.60;;;2.30;;
10100;SDS011;5090;51.258;4.436;2023-05-23T13:32:30;8.40;;;2.33;;
10100;SDS011;5090;51.258;4.436;2023-05-23T13:34:59;10.43;;;2.20;;
10100;SDS011;5090;51.258;4.436;2023-05-23T13:37:27;8.83;;;2.50;;
10100;SDS011;5090;51.258;4.436;2023-05-23T13:39:55;13.53;;;2.87;;
10100;SDS011;5090;51.258;4.436;2023-05-23T13:42:24;8.60;;;2.70;;
10100;SDS011;5090;51.258;4.436;2023-05-23T13:44:52;10.07;;;2.30;;
10100;SDS011;5090;51.258;4.436;2023-05-23T13:47:21;9.35;;;2.12;;
10100;SDS011;5090;51.258;4.436;2023-05-23T13:49:49;12.07;;;2.08;;
10100;SDS011;5090;51.258;4.436;2023-05-23T13:52:17;11.82;;;2.42;;
10100;SDS011;5090;51.258;4.436;2023-05-23T13:54:45;9.93;;;2.47;;
10100;SDS011;5090;51.258;4.436;2023-05-23T13:57:14;9.30;;;2.00;;
10100;SDS011;5090;51.258;4.436;2023-05-23T13:59:42;8.20;;;2.43;;
10100;SDS011;5090;51.258;4.436;2023-05-23T14:02:10;7.35;;;2.05;;
10100;SDS011;5090;51.258;4.436;2023-05-23T14:04:38;10.27;;;2.30;;
10100;SDS011;5090;51.258;4.436;2023-05-23T14:07:06;6.60;;;2.03;;
10100;SDS011;5090;51.258;4.436;2023-05-23T14:09:35;6.57;;;1.98;;
10100;SDS011;5090;51.258;4.436;2023-05-23T14:12:03;9.93;;;2.37;;
10100;SDS011;5090;51.258;4.436;2023-05-23T14:14:32;10.90;;;2.80;;
10100;SDS011;5090;51.258;4.436;2023-05-23T14:17:01;12.23;;;3.07;;
10100;SDS011;5090;51.258;4.436;2023-05-23T14:19:30;8.13;;;2.80;;
10100;SDS011;5090;51.258;4.436;2023-05-23T14:21:58;11.10;;;2.20;;
10100;SDS011;5090;51.258;4.436;2023-05-23T14:24:27;9.57;;;2.30;;
10100;SDS011;5090;51.258;4.436;2023-05-23T14:26:55;11.17;;;2.17;;
10100;SDS011;5090;51.258;4.436;2023-05-23T14:29:23;9.93;;;2.40;;
10100;SDS011;5090;51.258;4.436;2023-05-23T14:31:51;9.63;;;2.40;;
10100;SDS011;5090;51.258;4.436;2023-05-23T14:34:20;11.97;;;2.60;;
10100;SDS011;5090;51.258;4.436;2023-05-23T14:36:48;10.43;;;2.63;;
10100;SDS011;5090;51.258;4.436;2023-05-23T14:39:16;7.40;;;2.37;;
10100;SDS011;5090;51.258;4.436;2023-05-23T14:41:49;9.67;;;2.43;;
10100;SDS011;5090;51.258;4.436;2023-05-23T14:44:17;9.70;;;2.40;;
10100;SDS011;5090;51.258;4.436;2023-05-23T14:46:46;11.40;;;2.00;;
10100;SDS011;5090;51.258;4.436;2023-05-23T14:49:15;5.80;;;2.33;;
10100;SDS011;5090;51.258;4.436;2023-05-23T14:51:43;13.23;;;2.50;;
10100;SDS011;5090;51.258;4.436;2023-05-23T14:54:11;9.87;;;2.13;;
10100;SDS011;5090;51.258;4.436;2023-05-23T14:56:41;11.87;;;2.60;;
10100;SDS011;5090;51.258;4.436;2023-05-23T14:59:09;14.63;;;3.37;;
10100;SDS011;5090;51.258;4.436;2023-05-23T15:01:38;10.67;;;3.20;;